Česky Dansk Deutsch English Español Suomi Français Magyar Italiano Nederlands norsk Polski Português svenska Türkçe

 

Het Weer

Luang-Prabang (Laos)

13:00, 4 augustus 2016 (GMT)

NWNNE
WE
SWSSE
Home            
Luang-Prabang Sayaboury Nan Vientiane Nong Khai Chiang Rai Loei Phrae Udon Thani Kengtung Lampang Uttaradit Chiang Mai Sakon Nakhon Thakhek Khon Kaen Nakhon Phanom Vinh Phitsanulok Ha Noi Hanoi / Gialam Chaiyaphum Mae Hong Son

Om een weerknop op uw website of weblog te plaatsen, copieer onderstaande code en plak die in uw pagina. In het eerste vakje staat HTML-code, in het tweede vakje UBB-code.


Add to Google

Details

Visibility: 4000 m, 4.0 km, 13123 ft, 2.5 miles
Clouds:Aufgelockert bewölkt at 1000 ft, 305 m
Aufgelockert bewölkt at 5000 ft, 1524 m
Geschlossene Wolkendecke at 7000 ft, 2134 m
Temperature:25°C, 77°F
Gefühlte Temperatur:26°C, 78°F
Dew-point:22°C, 72°F
Atmospheric pressure:1005 hPa, 753.8 mmHg, 29.68 inHg, 0.992 atm
Relative humidity:83.5 %
METAR:VLLB 041300Z 00000KT 4000 SCT010 SCT050 OVC070 25/22 Q1005 NOSIG RMK RERA

Snelkoppelingen

Actuele weersinformatie van de hele wereld. Voeg locaties toe met het plus (+) symbool. Deze snelkoppelingen kunnen worden toegevoegd aan Google.

Lid van de Technetium groep

website free tracking
StatCounter NetStat W3C Validator

08-08-2020 04:16:07
astro.technetium.be money.technetium.be phote.technetium.be tafeltennistafel.technetium.be www.ligfiets.net